EGHQ

Newquay Cornwall Airport

Newquay, United Kingdom

EGHQ 110850Z 01023KT 9999 BKN020 03/01 Q0984

Observed Flight Rules
Dec-11 @ 08:50 UTC (44 minutes ago) Marginal Visual Flight Rules
Wind Visibility Clouds
10° at 23 knots 10,000+ meters
  • Broken at 2,000' AGL
Temperatures Readings
Current 3°C / 37°F
Dewpoint 1°C / 34°F
Humidity 87%
Altimeter 29.06" Hg
Pressure 984 hPa
Elevation 119
Observed Flight Rules
Dec-11 @ 08:50 UTC
(44 minutes ago)
MVFR
Wind Visibility
10° at 23 knots 10,000+ meters
Clouds
  • Broken at 2,000' AGL
Temperature Dewpoint
3°C / 37°F 1°C / 34°F
Humidity Altimeter Pressure
87% 29.06" Hg 984 hPa